If you wish to contribute or participate in the discussions about articles you are invited to join SKYbrary as a registered user

 Actions

Dibrugarh Airport

From SKYbrary Wiki

VEMN
Airport
ICAO: VEMN
Summary
Name Dibrugarh Airport
Region Asia and Pacific
Territory India IN.gif
Location Dibrugarh, Assam
Serving
Coordinates 27° 29' 5.45" N, 95° 1' 17.69" E
Runways
Designator Length Width Surface ROPS
5/23 1829 m6,000.656 ft
45 m147.638 ft
ASP yes/yes


METAR
Observation VEMN 111030Z 02006KT 5000HZ NSC 30/19 Q1007 NOSIG
Station Dibrugarh / Mohanbari
Date/Time 11 April 2019 10:30:00
Wind direction 20°
Wind speed 06 kts
Lowest cloud amount nil significant cloud
Temperature 30°C
Dew point 19°C
Humidity 51%
QNH 1007 hPa
Weather condition haze

BS
Tag(s) Bird Strike
WX
Tag(s) Cumulonimbus

Dibrugarh Airport

ICAO: VEMN IATA: DIB

Description

Dibrugarh Airport, also known as Mohanbari Airport due to its location, is located about 15 km8.099 nm
15,000 m
49,212.598 ft
northeast of the town of Dibrugarh, in the state of Assam, India.

Climatology

Humid Sub-tropical climate (Köppen climate classification Cwa) - Hot, humid, extremely wet summers and warm winters. Significant precipitation in all seasons but drier in the winter.


Maps

Terrain

Loading map...

Airport Layout

Loading map...



Accidents & Serious Incidents at or in vicinity of VEMN

None on SKYbrary